Previous Day
Next Day
Current Day
SHEF ID: FVSO2 FAIRVIEW
STATION TYPE: Mesonet
PRECIP AIR-TEMP WIND-DIRWIND-SPEED REL-HUMID SOLAR-RAD
in F deg mph % W/m2
Raw-Meson Raw-Meson Raw-Meson Raw-Meson Raw-Meson Raw-Meson
(US/Central)
05/26 00:00 0.00 69.31 162.50 5.59 86.75 0.00
05/26 01:00 0.00 68.50 153.50 5.70 89.75 0.00
05/26 02:00 0.00 66.74 111.25 4.03 93.50 0.00
05/26 03:00 0.00 67.14 172.00 5.87 93.25 0.00
05/26 04:00 0.00 68.86 172.75 7.32 87.75 0.00
05/26 05:00 0.00 66.47 130.00 4.81 93.00 0.00
05/26 06:00 0.00 64.81 149.75 3.69 95.00 0.00
05/26 07:00 0.00 62.87 77.75 1.18 97.50 20.25
05/26 08:00 0.00 64.81 142.75 1.51 97.50 60.00
05/26 09:00 0.00 66.74 99.00 3.13 96.25 99.50
05/26 10:00 0.00 68.50 89.75 5.65 97.75 170.50
05/26 11:00 0.00 71.33 123.75 7.49 92.00 302.50
05/26 12:00 0.00 73.31 137.75 8.72 87.25 323.50
05/26 13:00 0.00 75.34 148.50 9.34 83.75 278.75
05/26 14:00 0.00 80.47 152.25 9.28 74.00 644.75
05/26 15:00 0.00 82.40 137.50 14.21 68.75 620.00
05/26 16:00 0.00 83.12 142.25 14.42 67.75 648.75
05/26 17:00 0.00 85.28 135.75 14.60 64.75 647.75
05/26 18:00 0.00 87.35 145.50 15.21 61.25 485.50
05/26 19:00 0.00 86.99 157.25 15.04 57.75 171.00
05/26 20:00 0.00 83.03 149.25 10.35 65.50 50.50
05/26 21:00 0.00 80.96 165.50 10.51 69.75 2.25
05/26 22:00 0.00 80.51 172.00 10.40 72.75 0.00
05/26 23:00 ---- 78.84 208.25 10.57 74.25 0.00